sensor_id;sensor_type;location;lat;lon;timestamp;temperature;humidity
9849;DHT22;4963;51.444;6.528;2022-11-06T00:00:27;9.20;99.90
9849;DHT22;4963;51.444;6.528;2022-11-06T00:02:56;9.20;99.90
9849;DHT22;4963;51.444;6.528;2022-11-06T00:05:23;9.20;99.90
9849;DHT22;4963;51.444;6.528;2022-11-06T00:08:09;9.20;99.90
9849;DHT22;4963;51.444;6.528;2022-11-06T00:10:36;9.20;99.90
9849;DHT22;4963;51.444;6.528;2022-11-06T00:13:03;9.10;99.90
9849;DHT22;4963;51.444;6.528;2022-11-06T00:15:30;9.10;99.90
9849;DHT22;4963;51.444;6.528;2022-11-06T00:17:57;9.10;99.90
9849;DHT22;4963;51.444;6.528;2022-11-06T00:20:23;9.10;99.90
9849;DHT22;4963;51.444;6.528;2022-11-06T00:22:50;9.10;99.90
9849;DHT22;4963;51.444;6.528;2022-11-06T00:25:18;9.10;99.90
9849;DHT22;4963;51.444;6.528;2022-11-06T00:27:45;9.10;99.90
9849;DHT22;4963;51.444;6.528;2022-11-06T00:30:12;9.10;99.90
9849;DHT22;4963;51.444;6.528;2022-11-06T00:32:39;9.00;99.90
9849;DHT22;4963;51.444;6.528;2022-11-06T00:35:06;9.00;99.90
9849;DHT22;4963;51.444;6.528;2022-11-06T00:37:33;9.10;99.90
9849;DHT22;4963;51.444;6.528;2022-11-06T00:40:01;9.10;99.90
9849;DHT22;4963;51.444;6.528;2022-11-06T00:42:29;9.10;99.90
9849;DHT22;4963;51.444;6.528;2022-11-06T00:44:56;9.00;99.90
9849;DHT22;4963;51.444;6.528;2022-11-06T00:47:22;9.00;99.90
9849;DHT22;4963;51.444;6.528;2022-11-06T00:49:49;9.00;99.90
9849;DHT22;4963;51.444;6.528;2022-11-06T00:52:16;9.00;99.90
9849;DHT22;4963;51.444;6.528;2022-11-06T00:54:43;8.90;99.90
9849;DHT22;4963;51.444;6.528;2022-11-06T00:57:10;8.80;99.90
9849;DHT22;4963;51.444;6.528;2022-11-06T00:59:38;8.80;99.90
9849;DHT22;4963;51.444;6.528;2022-11-06T01:02:05;8.80;99.90
9849;DHT22;4963;51.444;6.528;2022-11-06T01:04:31;8.80;99.90
9849;DHT22;4963;51.444;6.528;2022-11-06T01:06:58;8.80;99.90
9849;DHT22;4963;51.444;6.528;2022-11-06T01:09:26;8.80;99.90
9849;DHT22;4963;51.444;6.528;2022-11-06T01:11:55;8.80;99.90
9849;DHT22;4963;51.444;6.528;2022-11-06T01:14:22;8.80;99.90
9849;DHT22;4963;51.444;6.528;2022-11-06T01:16:50;8.80;99.90
9849;DHT22;4963;51.444;6.528;2022-11-06T01:19:19;8.80;99.90
9849;DHT22;4963;51.444;6.528;2022-11-06T01:21:47;8.80;99.90
9849;DHT22;4963;51.444;6.528;2022-11-06T01:24:16;8.80;99.90
9849;DHT22;4963;51.444;6.528;2022-11-06T01:26:44;8.70;99.90
9849;DHT22;4963;51.444;6.528;2022-11-06T01:29:13;8.70;99.90
9849;DHT22;4963;51.444;6.528;2022-11-06T01:31:40;8.70;99.90
9849;DHT22;4963;51.444;6.528;2022-11-06T01:34:10;8.60;99.90
9849;DHT22;4963;51.444;6.528;2022-11-06T01:36:37;8.60;99.90
9849;DHT22;4963;51.444;6.528;2022-11-06T01:39:06;8.60;99.90
9849;DHT22;4963;51.444;6.528;2022-11-06T01:41:36;8.60;99.90
9849;DHT22;4963;51.444;6.528;2022-11-06T01:44:05;8.60;99.90
9849;DHT22;4963;51.444;6.528;2022-11-06T01:46:34;8.60;99.90
9849;DHT22;4963;51.444;6.528;2022-11-06T01:49:04;8.60;99.90
9849;DHT22;4963;51.444;6.528;2022-11-06T01:51:35;8.60;99.90
9849;DHT22;4963;51.444;6.528;2022-11-06T01:54:05;8.60;99.90
9849;DHT22;4963;51.444;6.528;2022-11-06T01:56:32;8.60;99.90
9849;DHT22;4963;51.444;6.528;2022-11-06T01:59:00;8.60;99.90
9849;DHT22;4963;51.444;6.528;2022-11-06T02:01:27;8.60;99.90
9849;DHT22;4963;51.444;6.528;2022-11-06T02:04:01;8.50;99.90
9849;DHT22;4963;51.444;6.528;2022-11-06T02:06:29;8.50;99.90
9849;DHT22;4963;51.444;6.528;2022-11-06T02:08:58;8.60;99.90
9849;DHT22;4963;51.444;6.528;2022-11-06T02:11:25;8.60;99.90
9849;DHT22;4963;51.444;6.528;2022-11-06T02:13:59;8.60;99.90
9849;DHT22;4963;51.444;6.528;2022-11-06T02:16:33;8.70;99.90
9849;DHT22;4963;51.444;6.528;2022-11-06T02:19:26;8.60;99.90
9849;DHT22;4963;51.444;6.528;2022-11-06T02:22:11;8.60;99.90
9849;DHT22;4963;51.444;6.528;2022-11-06T02:27:54;8.70;99.90
9849;DHT22;4963;51.444;6.528;2022-11-06T02:30:28;8.70;99.90
9849;DHT22;4963;51.444;6.528;2022-11-06T02:32:59;8.80;99.90
9849;DHT22;4963;51.444;6.528;2022-11-06T02:35:30;8.80;99.90
9849;DHT22;4963;51.444;6.528;2022-11-06T02:38:00;8.80;99.90
9849;DHT22;4963;51.444;6.528;2022-11-06T02:40:31;8.80;99.90
9849;DHT22;4963;51.444;6.528;2022-11-06T02:43:03;8.80;99.90
9849;DHT22;4963;51.444;6.528;2022-11-06T02:45:35;8.80;99.90
9849;DHT22;4963;51.444;6.528;2022-11-06T02:48:05;8.90;99.90
9849;DHT22;4963;51.444;6.528;2022-11-06T02:50:38;8.90;99.90
9849;DHT22;4963;51.444;6.528;2022-11-06T02:53:07;8.90;99.90
9849;DHT22;4963;51.444;6.528;2022-11-06T02:55:37;8.80;99.90
9849;DHT22;4963;51.444;6.528;2022-11-06T02:58:11;8.90;99.90
9849;DHT22;4963;51.444;6.528;2022-11-06T03:00:41;8.80;99.90
9849;DHT22;4963;51.444;6.528;2022-11-06T03:03:13;8.90;99.90
9849;DHT22;4963;51.444;6.528;2022-11-06T03:05:46;8.80;99.90
9849;DHT22;4963;51.444;6.528;2022-11-06T03:08:19;8.90;99.90
9849;DHT22;4963;51.444;6.528;2022-11-06T03:10:52;8.90;99.90
9849;DHT22;4963;51.444;6.528;2022-11-06T03:13:27;8.90;99.90
9849;DHT22;4963;51.444;6.528;2022-11-06T03:16:02;8.90;99.90
9849;DHT22;4963;51.444;6.528;2022-11-06T03:18:35;8.90;99.90
9849;DHT22;4963;51.444;6.528;2022-11-06T03:21:08;8.90;99.90
9849;DHT22;4963;51.444;6.528;2022-11-06T03:23:42;9.00;99.90
9849;DHT22;4963;51.444;6.528;2022-11-06T03:26:16;8.90;99.90
9849;DHT22;4963;51.444;6.528;2022-11-06T03:28:50;8.90;99.90
9849;DHT22;4963;51.444;6.528;2022-11-06T03:31:24;8.90;99.90
9849;DHT22;4963;51.444;6.528;2022-11-06T03:33:56;8.90;99.90
9849;DHT22;4963;51.444;6.528;2022-11-06T03:36:26;9.00;99.90
9849;DHT22;4963;51.444;6.528;2022-11-06T03:38:58;9.00;99.90
9849;DHT22;4963;51.444;6.528;2022-11-06T03:41:30;8.90;99.90
9849;DHT22;4963;51.444;6.528;2022-11-06T03:44:01;8.90;99.90
9849;DHT22;4963;51.444;6.528;2022-11-06T03:46:29;8.90;99.90
9849;DHT22;4963;51.444;6.528;2022-11-06T03:49:00;8.90;99.90
9849;DHT22;4963;51.444;6.528;2022-11-06T03:51:31;9.00;99.90
9849;DHT22;4963;51.444;6.528;2022-11-06T03:54:02;8.90;99.90
9849;DHT22;4963;51.444;6.528;2022-11-06T03:56:34;8.90;99.90
9849;DHT22;4963;51.444;6.528;2022-11-06T03:59:06;9.00;99.90
9849;DHT22;4963;51.444;6.528;2022-11-06T04:01:36;9.00;99.90
9849;DHT22;4963;51.444;6.528;2022-11-06T04:04:06;9.00;99.90
9849;DHT22;4963;51.444;6.528;2022-11-06T04:06:36;9.00;99.90
9849;DHT22;4963;51.444;6.528;2022-11-06T04:09:08;9.00;99.90
9849;DHT22;4963;51.444;6.528;2022-11-06T04:11:54;9.00;99.90
9849;DHT22;4963;51.444;6.528;2022-11-06T04:14:47;9.00;99.90
9849;DHT22;4963;51.444;6.528;2022-11-06T04:17:15;9.00;99.90
9849;DHT22;4963;51.444;6.528;2022-11-06T04:19:46;9.00;99.90
9849;DHT22;4963;51.444;6.528;2022-11-06T04:22:24;9.00;99.90
9849;DHT22;4963;51.444;6.528;2022-11-06T04:25:02;9.00;99.90
9849;DHT22;4963;51.444;6.528;2022-11-06T04:28:11;9.10;99.90
9849;DHT22;4963;51.444;6.528;2022-11-06T04:30:52;9.00;99.90
9849;DHT22;4963;51.444;6.528;2022-11-06T04:33:25;9.00;99.90
9849;DHT22;4963;51.444;6.528;2022-11-06T04:35:58;9.00;99.90
9849;DHT22;4963;51.444;6.528;2022-11-06T04:38:38;9.00;99.90
9849;DHT22;4963;51.444;6.528;2022-11-06T04:41:13;9.00;99.90
9849;DHT22;4963;51.444;6.528;2022-11-06T04:43:46;8.90;99.90
9849;DHT22;4963;51.444;6.528;2022-11-06T04:46:19;8.90;99.90
9849;DHT22;4963;51.444;6.528;2022-11-06T04:48:47;9.00;99.90
9849;DHT22;4963;51.444;6.528;2022-11-06T04:51:18;9.00;99.90
9849;DHT22;4963;51.444;6.528;2022-11-06T04:53:47;9.00;99.90
9849;DHT22;4963;51.444;6.528;2022-11-06T04:56:20;9.00;99.90
9849;DHT22;4963;51.444;6.528;2022-11-06T04:58:48;9.00;99.90
9849;DHT22;4963;51.444;6.528;2022-11-06T05:01:16;9.00;99.90
9849;DHT22;4963;51.444;6.528;2022-11-06T05:03:43;8.90;99.90
9849;DHT22;4963;51.444;6.528;2022-11-06T05:06:09;8.90;99.90
9849;DHT22;4963;51.444;6.528;2022-11-06T05:08:36;8.90;99.90
9849;DHT22;4963;51.444;6.528;2022-11-06T05:11:03;8.80;99.90
9849;DHT22;4963;51.444;6.528;2022-11-06T05:13:30;8.80;99.90
9849;DHT22;4963;51.444;6.528;2022-11-06T05:15:58;8.80;99.90
9849;DHT22;4963;51.444;6.528;2022-11-06T05:18:27;8.80;99.90
9849;DHT22;4963;51.444;6.528;2022-11-06T05:20:54;8.70;99.90
9849;DHT22;4963;51.444;6.528;2022-11-06T05:23:34;8.80;99.90
9849;DHT22;4963;51.444;6.528;2022-11-06T05:26:03;8.70;99.90
9849;DHT22;4963;51.444;6.528;2022-11-06T05:28:29;8.70;99.90
9849;DHT22;4963;51.444;6.528;2022-11-06T05:30:56;8.60;99.90
9849;DHT22;4963;51.444;6.528;2022-11-06T05:33:23;8.60;99.90
9849;DHT22;4963;51.444;6.528;2022-11-06T05:35:51;8.60;99.90
9849;DHT22;4963;51.444;6.528;2022-11-06T05:38:18;8.50;99.90
9849;DHT22;4963;51.444;6.528;2022-11-06T05:40:45;8.50;99.90
9849;DHT22;4963;51.444;6.528;2022-11-06T05:43:12;8.60;99.90
9849;DHT22;4963;51.444;6.528;2022-11-06T05:45:39;8.50;99.90
9849;DHT22;4963;51.444;6.528;2022-11-06T05:48:05;8.60;99.90
9849;DHT22;4963;51.444;6.528;2022-11-06T05:50:32;8.50;99.90
9849;DHT22;4963;51.444;6.528;2022-11-06T05:53:00;8.50;99.90
9849;DHT22;4963;51.444;6.528;2022-11-06T05:55:27;8.50;99.90
9849;DHT22;4963;51.444;6.528;2022-11-06T05:57:54;8.50;99.90
9849;DHT22;4963;51.444;6.528;2022-11-06T06:00:21;8.40;99.90
9849;DHT22;4963;51.444;6.528;2022-11-06T06:02:47;8.50;99.90
9849;DHT22;4963;51.444;6.528;2022-11-06T06:05:14;8.50;99.90
9849;DHT22;4963;51.444;6.528;2022-11-06T06:07:41;8.50;99.90
9849;DHT22;4963;51.444;6.528;2022-11-06T06:10:10;8.50;99.90
9849;DHT22;4963;51.444;6.528;2022-11-06T06:12:36;8.50;99.90
9849;DHT22;4963;51.444;6.528;2022-11-06T06:15:04;8.50;99.90
9849;DHT22;4963;51.444;6.528;2022-11-06T06:17:31;8.50;99.90
9849;DHT22;4963;51.444;6.528;2022-11-06T06:19:58;8.50;99.90
9849;DHT22;4963;51.444;6.528;2022-11-06T06:22:25;8.50;99.90
9849;DHT22;4963;51.444;6.528;2022-11-06T06:24:52;8.40;99.90
9849;DHT22;4963;51.444;6.528;2022-11-06T06:27:20;8.40;99.90
9849;DHT22;4963;51.444;6.528;2022-11-06T06:29:47;8.40;99.90
9849;DHT22;4963;51.444;6.528;2022-11-06T06:32:13;8.40;99.90
9849;DHT22;4963;51.444;6.528;2022-11-06T06:34:40;8.50;99.90
9849;DHT22;4963;51.444;6.528;2022-11-06T06:37:07;8.50;99.90
9849;DHT22;4963;51.444;6.528;2022-11-06T06:39:34;8.50;99.90
9849;DHT22;4963;51.444;6.528;2022-11-06T06:42:01;8.50;99.90
9849;DHT22;4963;51.444;6.528;2022-11-06T06:44:29;8.50;99.90
9849;DHT22;4963;51.444;6.528;2022-11-06T06:46:56;8.50;99.90
9849;DHT22;4963;51.444;6.528;2022-11-06T06:49:23;8.50;99.90
9849;DHT22;4963;51.444;6.528;2022-11-06T06:51:50;8.60;99.90
9849;DHT22;4963;51.444;6.528;2022-11-06T06:54:17;8.60;99.90
9849;DHT22;4963;51.444;6.528;2022-11-06T06:56:44;8.50;99.90
9849;DHT22;4963;51.444;6.528;2022-11-06T06:59:10;8.60;99.90
9849;DHT22;4963;51.444;6.528;2022-11-06T07:01:38;8.60;99.90
9849;DHT22;4963;51.444;6.528;2022-11-06T07:04:05;8.60;99.90
9849;DHT22;4963;51.444;6.528;2022-11-06T07:06:32;8.60;99.90
9849;DHT22;4963;51.444;6.528;2022-11-06T07:08:59;8.60;99.90
9849;DHT22;4963;51.444;6.528;2022-11-06T07:11:26;8.60;99.90
9849;DHT22;4963;51.444;6.528;2022-11-06T07:13:52;8.60;99.90
9849;DHT22;4963;51.444;6.528;2022-11-06T07:16:19;8.70;99.90
9849;DHT22;4963;51.444;6.528;2022-11-06T07:18:47;8.70;99.90
9849;DHT22;4963;51.444;6.528;2022-11-06T07:21:14;8.70;99.90
9849;DHT22;4963;51.444;6.528;2022-11-06T07:23:41;8.70;99.90
9849;DHT22;4963;51.444;6.528;2022-11-06T07:26:08;8.80;99.90
9849;DHT22;4963;51.444;6.528;2022-11-06T07:28:35;9.00;99.90
9849;DHT22;4963;51.444;6.528;2022-11-06T07:31:03;9.10;99.90
9849;DHT22;4963;51.444;6.528;2022-11-06T07:33:31;9.30;99.90
9849;DHT22;4963;51.444;6.528;2022-11-06T07:36:03;9.50;99.90
9849;DHT22;4963;51.444;6.528;2022-11-06T07:38:32;9.60;99.90
9849;DHT22;4963;51.444;6.528;2022-11-06T07:41:01;9.60;99.90
9849;DHT22;4963;51.444;6.528;2022-11-06T07:43:28;9.50;99.90
9849;DHT22;4963;51.444;6.528;2022-11-06T07:45:57;9.40;99.90
9849;DHT22;4963;51.444;6.528;2022-11-06T07:48:25;9.30;99.90
9849;DHT22;4963;51.444;6.528;2022-11-06T07:50:52;9.30;99.90
9849;DHT22;4963;51.444;6.528;2022-11-06T07:53:21;9.20;99.90
9849;DHT22;4963;51.444;6.528;2022-11-06T07:55:48;9.30;99.90
9849;DHT22;4963;51.444;6.528;2022-11-06T07:58:15;9.20;99.90
9849;DHT22;4963;51.444;6.528;2022-11-06T08:00:45;9.20;99.90
9849;DHT22;4963;51.444;6.528;2022-11-06T08:03:12;9.20;99.90
9849;DHT22;4963;51.444;6.528;2022-11-06T08:05:39;9.20;99.90
9849;DHT22;4963;51.444;6.528;2022-11-06T08:08:05;9.10;99.90
9849;DHT22;4963;51.444;6.528;2022-11-06T08:10:34;9.10;99.90
9849;DHT22;4963;51.444;6.528;2022-11-06T08:13:04;9.10;99.90
9849;DHT22;4963;51.444;6.528;2022-11-06T08:15:31;9.20;99.90
9849;DHT22;4963;51.444;6.528;2022-11-06T08:17:58;9.30;99.90
9849;DHT22;4963;51.444;6.528;2022-11-06T08:20:25;9.50;99.90
9849;DHT22;4963;51.444;6.528;2022-11-06T08:22:56;9.50;99.90
9849;DHT22;4963;51.444;6.528;2022-11-06T08:25:23;9.60;99.90
9849;DHT22;4963;51.444;6.528;2022-11-06T08:27:53;9.70;99.90
9849;DHT22;4963;51.444;6.528;2022-11-06T08:30:20;9.80;99.90
9849;DHT22;4963;51.444;6.528;2022-11-06T08:32:47;9.90;99.90
9849;DHT22;4963;51.444;6.528;2022-11-06T08:35:13;10.00;99.90
9849;DHT22;4963;51.444;6.528;2022-11-06T08:37:40;10.00;99.90
9849;DHT22;4963;51.444;6.528;2022-11-06T08:40:08;10.10;99.90
9849;DHT22;4963;51.444;6.528;2022-11-06T08:42:35;10.10;99.90
9849;DHT22;4963;51.444;6.528;2022-11-06T08:45:05;10.10;99.90
9849;DHT22;4963;51.444;6.528;2022-11-06T08:47:32;10.10;99.90
9849;DHT22;4963;51.444;6.528;2022-11-06T08:49:58;10.10;99.90
9849;DHT22;4963;51.444;6.528;2022-11-06T08:52:25;10.10;99.90
9849;DHT22;4963;51.444;6.528;2022-11-06T08:54:52;10.00;99.90
9849;DHT22;4963;51.444;6.528;2022-11-06T08:57:19;10.00;99.90
9849;DHT22;4963;51.444;6.528;2022-11-06T08:59:45;10.00;99.90
9849;DHT22;4963;51.444;6.528;2022-11-06T09:02:14;10.00;99.90
9849;DHT22;4963;51.444;6.528;2022-11-06T09:04:40;10.00;99.90
9849;DHT22;4963;51.444;6.528;2022-11-06T09:07:08;10.10;99.90
9849;DHT22;4963;51.444;6.528;2022-11-06T09:09:35;10.10;99.90
9849;DHT22;4963;51.444;6.528;2022-11-06T09:12:02;10.10;99.90
9849;DHT22;4963;51.444;6.528;2022-11-06T09:14:29;10.10;99.90
9849;DHT22;4963;51.444;6.528;2022-11-06T09:16:57;10.20;99.90
9849;DHT22;4963;51.444;6.528;2022-11-06T09:19:25;10.20;99.90
9849;DHT22;4963;51.444;6.528;2022-11-06T09:21:52;10.30;99.90
9849;DHT22;4963;51.444;6.528;2022-11-06T09:24:19;10.30;99.90
9849;DHT22;4963;51.444;6.528;2022-11-06T09:26:46;10.30;99.90
9849;DHT22;4963;51.444;6.528;2022-11-06T09:29:12;10.30;99.90
9849;DHT22;4963;51.444;6.528;2022-11-06T09:31:39;10.30;99.90
9849;DHT22;4963;51.444;6.528;2022-11-06T09:34:08;10.40;99.90
9849;DHT22;4963;51.444;6.528;2022-11-06T09:36:36;10.40;99.90
9849;DHT22;4963;51.444;6.528;2022-11-06T09:39:03;10.40;99.90
9849;DHT22;4963;51.444;6.528;2022-11-06T09:41:36;10.50;99.90
9849;DHT22;4963;51.444;6.528;2022-11-06T09:44:17;10.50;99.90
9849;DHT22;4963;51.444;6.528;2022-11-06T09:46:46;10.60;99.90
9849;DHT22;4963;51.444;6.528;2022-11-06T09:49:19;10.60;99.90
9849;DHT22;4963;51.444;6.528;2022-11-06T09:51:52;10.70;99.90
9849;DHT22;4963;51.444;6.528;2022-11-06T09:54:23;10.80;99.90
9849;DHT22;4963;51.444;6.528;2022-11-06T09:56:55;10.80;99.90
9849;DHT22;4963;51.444;6.528;2022-11-06T09:59:24;10.90;99.90
9849;DHT22;4963;51.444;6.528;2022-11-06T10:01:54;10.90;99.90
9849;DHT22;4963;51.444;6.528;2022-11-06T10:04:34;11.00;99.90
9849;DHT22;4963;51.444;6.528;2022-11-06T10:07:03;11.00;99.90
9849;DHT22;4963;51.444;6.528;2022-11-06T10:09:30;11.00;99.90
9849;DHT22;4963;51.444;6.528;2022-11-06T10:12:07;11.00;99.90
9849;DHT22;4963;51.444;6.528;2022-11-06T10:14:47;11.10;99.90
9849;DHT22;4963;51.444;6.528;2022-11-06T10:17:27;11.10;99.90
9849;DHT22;4963;51.444;6.528;2022-11-06T10:20:03;11.20;99.90
9849;DHT22;4963;51.444;6.528;2022-11-06T10:22:39;11.20;99.90
9849;DHT22;4963;51.444;6.528;2022-11-06T10:25:17;11.30;99.90
9849;DHT22;4963;51.444;6.528;2022-11-06T10:27:54;11.30;99.90
9849;DHT22;4963;51.444;6.528;2022-11-06T10:30:24;11.40;99.90
9849;DHT22;4963;51.444;6.528;2022-11-06T10:33:19;11.40;99.90
9849;DHT22;4963;51.444;6.528;2022-11-06T10:35:52;11.40;99.90
9849;DHT22;4963;51.444;6.528;2022-11-06T10:38:24;11.50;99.90
9849;DHT22;4963;51.444;6.528;2022-11-06T10:40:52;11.50;99.90
9849;DHT22;4963;51.444;6.528;2022-11-06T10:43:25;11.40;99.90
9849;DHT22;4963;51.444;6.528;2022-11-06T10:45:59;11.50;99.90
9849;DHT22;4963;51.444;6.528;2022-11-06T10:48:29;11.50;99.90
9849;DHT22;4963;51.444;6.528;2022-11-06T10:51:20;11.50;99.90
9849;DHT22;4963;51.444;6.528;2022-11-06T10:53:59;11.60;99.90
9849;DHT22;4963;51.444;6.528;2022-11-06T10:56:38;11.60;99.90
9849;DHT22;4963;51.444;6.528;2022-11-06T10:59:11;11.60;99.90
9849;DHT22;4963;51.444;6.528;2022-11-06T11:01:38;11.50;99.90
9849;DHT22;4963;51.444;6.528;2022-11-06T11:04:05;11.60;99.90
9849;DHT22;4963;51.444;6.528;2022-11-06T11:06:32;11.60;99.90
9849;DHT22;4963;51.444;6.528;2022-11-06T11:09:00;11.60;99.90
9849;DHT22;4963;51.444;6.528;2022-11-06T11:11:27;11.60;99.90
9849;DHT22;4963;51.444;6.528;2022-11-06T11:14:20;11.60;99.90
9849;DHT22;4963;51.444;6.528;2022-11-06T11:16:48;11.60;99.90
9849;DHT22;4963;51.444;6.528;2022-11-06T11:19:23;11.60;99.90
9849;DHT22;4963;51.444;6.528;2022-11-06T11:21:55;11.60;99.90
9849;DHT22;4963;51.444;6.528;2022-11-06T11:24:24;11.60;99.90
9849;DHT22;4963;51.444;6.528;2022-11-06T11:26:52;11.60;99.90
9849;DHT22;4963;51.444;6.528;2022-11-06T11:29:23;11.60;99.90
9849;DHT22;4963;51.444;6.528;2022-11-06T11:31:53;11.70;99.90
9849;DHT22;4963;51.444;6.528;2022-11-06T11:34:23;11.70;99.90
9849;DHT22;4963;51.444;6.528;2022-11-06T11:36:54;11.70;99.90
9849;DHT22;4963;51.444;6.528;2022-11-06T11:39:29;11.80;99.90
9849;DHT22;4963;51.444;6.528;2022-11-06T11:42:15;11.80;99.90
9849;DHT22;4963;51.444;6.528;2022-11-06T11:44:42;11.80;99.90
9849;DHT22;4963;51.444;6.528;2022-11-06T11:47:19;11.80;99.90
9849;DHT22;4963;51.444;6.528;2022-11-06T11:49:47;11.80;99.90
9849;DHT22;4963;51.444;6.528;2022-11-06T11:52:19;11.80;99.90
9849;DHT22;4963;51.444;6.528;2022-11-06T11:54:50;11.90;99.90
9849;DHT22;4963;51.444;6.528;2022-11-06T11:57:20;11.90;99.90
9849;DHT22;4963;51.444;6.528;2022-11-06T11:59:51;11.90;99.90
9849;DHT22;4963;51.444;6.528;2022-11-06T12:02:21;11.90;99.90
9849;DHT22;4963;51.444;6.528;2022-11-06T12:04:51;12.00;99.90
9849;DHT22;4963;51.444;6.528;2022-11-06T12:07:23;12.00;99.90
9849;DHT22;4963;51.444;6.528;2022-11-06T12:09:52;12.10;99.90
9849;DHT22;4963;51.444;6.528;2022-11-06T12:12:21;12.20;99.90
9849;DHT22;4963;51.444;6.528;2022-11-06T12:15:04;12.20;99.90
9849;DHT22;4963;51.444;6.528;2022-11-06T12:17:32;12.20;99.90
9849;DHT22;4963;51.444;6.528;2022-11-06T12:20:02;12.30;99.90
9849;DHT22;4963;51.444;6.528;2022-11-06T12:22:36;12.30;99.90
9849;DHT22;4963;51.444;6.528;2022-11-06T12:25:11;12.20;99.90
9849;DHT22;4963;51.444;6.528;2022-11-06T12:27:42;12.20;99.90
9849;DHT22;4963;51.444;6.528;2022-11-06T12:30:12;12.10;99.90
9849;DHT22;4963;51.444;6.528;2022-11-06T12:32:51;12.10;99.90
9849;DHT22;4963;51.444;6.528;2022-11-06T12:35:24;12.10;99.90
9849;DHT22;4963;51.444;6.528;2022-11-06T12:37:59;12.00;99.90
9849;DHT22;4963;51.444;6.528;2022-11-06T12:40:30;12.00;99.90
9849;DHT22;4963;51.444;6.528;2022-11-06T12:43:04;12.00;99.90
9849;DHT22;4963;51.444;6.528;2022-11-06T12:45:42;12.00;99.90
9849;DHT22;4963;51.444;6.528;2022-11-06T12:48:23;12.00;99.90
9849;DHT22;4963;51.444;6.528;2022-11-06T12:50:55;12.00;99.90
9849;DHT22;4963;51.444;6.528;2022-11-06T12:53:34;11.90;99.90
9849;DHT22;4963;51.444;6.528;2022-11-06T12:56:14;11.90;99.90
9849;DHT22;4963;51.444;6.528;2022-11-06T12:59:00;11.90;99.90
9849;DHT22;4963;51.444;6.528;2022-11-06T13:01:41;11.80;99.90
9849;DHT22;4963;51.444;6.528;2022-11-06T13:04:23;11.80;99.90
9849;DHT22;4963;51.444;6.528;2022-11-06T13:07:04;11.80;99.90
9849;DHT22;4963;51.444;6.528;2022-11-06T13:09:38;11.80;99.90
9849;DHT22;4963;51.444;6.528;2022-11-06T13:12:16;11.80;99.90
9849;DHT22;4963;51.444;6.528;2022-11-06T13:14:52;11.90;99.90
9849;DHT22;4963;51.444;6.528;2022-11-06T13:17:24;12.00;99.90
9849;DHT22;4963;51.444;6.528;2022-11-06T13:19:54;12.10;99.90
9849;DHT22;4963;51.444;6.528;2022-11-06T13:22:27;12.10;99.90
9849;DHT22;4963;51.444;6.528;2022-11-06T13:24:59;12.20;99.90
9849;DHT22;4963;51.444;6.528;2022-11-06T13:27:34;12.20;99.90
9849;DHT22;4963;51.444;6.528;2022-11-06T13:30:10;12.20;99.90
9849;DHT22;4963;51.444;6.528;2022-11-06T13:32:40;12.20;99.90
9849;DHT22;4963;51.444;6.528;2022-11-06T13:35:13;12.20;99.90
9849;DHT22;4963;51.444;6.528;2022-11-06T13:37:44;12.20;99.90
9849;DHT22;4963;51.444;6.528;2022-11-06T13:40:21;12.20;99.90
9849;DHT22;4963;51.444;6.528;2022-11-06T13:42:54;12.20;99.90
9849;DHT22;4963;51.444;6.528;2022-11-06T13:45:23;12.20;99.90
9849;DHT22;4963;51.444;6.528;2022-11-06T13:48:00;12.20;99.90
9849;DHT22;4963;51.444;6.528;2022-11-06T13:50:33;12.10;99.90
9849;DHT22;4963;51.444;6.528;2022-11-06T13:53:06;12.10;99.90
9849;DHT22;4963;51.444;6.528;2022-11-06T13:55:49;12.10;99.90
9849;DHT22;4963;51.444;6.528;2022-11-06T13:58:27;12.10;99.90
9849;DHT22;4963;51.444;6.528;2022-11-06T14:01:10;12.10;99.90
9849;DHT22;4963;51.444;6.528;2022-11-06T14:03:58;12.10;99.90
9849;DHT22;4963;51.444;6.528;2022-11-06T14:06:30;12.00;99.90
9849;DHT22;4963;51.444;6.528;2022-11-06T14:08:59;12.00;99.90
9849;DHT22;4963;51.444;6.528;2022-11-06T14:11:29;12.00;99.90
9849;DHT22;4963;51.444;6.528;2022-11-06T14:14:00;12.00;99.90
9849;DHT22;4963;51.444;6.528;2022-11-06T14:16:29;12.00;99.90
9849;DHT22;4963;51.444;6.528;2022-11-06T14:19:01;12.00;99.90
9849;DHT22;4963;51.444;6.528;2022-11-06T14:21:43;12.00;99.90
9849;DHT22;4963;51.444;6.528;2022-11-06T14:24:21;12.00;99.90
9849;DHT22;4963;51.444;6.528;2022-11-06T14:26:52;12.00;99.90
9849;DHT22;4963;51.444;6.528;2022-11-06T14:29:55;12.00;99.90
9849;DHT22;4963;51.444;6.528;2022-11-06T14:32:47;12.00;99.90
9849;DHT22;4963;51.444;6.528;2022-11-06T14:38:34;12.10;99.90
9849;DHT22;4963;51.444;6.528;2022-11-06T14:41:03;12.00;99.90
9849;DHT22;4963;51.444;6.528;2022-11-06T14:43:49;12.00;99.90
9849;DHT22;4963;51.444;6.528;2022-11-06T14:46:20;12.00;99.90
9849;DHT22;4963;51.444;6.528;2022-11-06T14:48:49;12.00;99.90
9849;DHT22;4963;51.444;6.528;2022-11-06T14:51:25;12.00;99.90
9849;DHT22;4963;51.444;6.528;2022-11-06T14:53:54;12.00;99.90
9849;DHT22;4963;51.444;6.528;2022-11-06T14:56:23;12.00;99.90
9849;DHT22;4963;51.444;6.528;2022-11-06T14:58:53;11.90;99.90
9849;DHT22;4963;51.444;6.528;2022-11-06T15:01:27;11.90;99.90
9849;DHT22;4963;51.444;6.528;2022-11-06T15:03:55;11.80;99.90
9849;DHT22;4963;51.444;6.528;2022-11-06T15:06:40;11.80;99.90
9849;DHT22;4963;51.444;6.528;2022-11-06T15:09:12;11.80;99.90
9849;DHT22;4963;51.444;6.528;2022-11-06T15:11:56;11.70;99.90
9849;DHT22;4963;51.444;6.528;2022-11-06T15:14:58;11.70;99.90
9849;DHT22;4963;51.444;6.528;2022-11-06T15:17:33;11.70;99.90
9849;DHT22;4963;51.444;6.528;2022-11-06T15:20:17;11.60;99.90
9849;DHT22;4963;51.444;6.528;2022-11-06T15:22:50;11.60;99.90
9849;DHT22;4963;51.444;6.528;2022-11-06T15:25:21;11.60;99.90
9849;DHT22;4963;51.444;6.528;2022-11-06T15:27:55;11.50;99.90
9849;DHT22;4963;51.444;6.528;2022-11-06T15:30:24;11.50;99.90
9849;DHT22;4963;51.444;6.528;2022-11-06T15:32:53;11.40;99.90
9849;DHT22;4963;51.444;6.528;2022-11-06T15:35:22;11.40;99.90
9849;DHT22;4963;51.444;6.528;2022-11-06T15:37:51;11.30;99.90
9849;DHT22;4963;51.444;6.528;2022-11-06T15:40:28;11.30;99.90
9849;DHT22;4963;51.444;6.528;2022-11-06T15:42:56;11.10;99.90
9849;DHT22;4963;51.444;6.528;2022-11-06T15:45:25;11.00;99.90
9849;DHT22;4963;51.444;6.528;2022-11-06T15:47:55;10.90;99.90
9849;DHT22;4963;51.444;6.528;2022-11-06T15:50:25;10.80;99.90
9849;DHT22;4963;51.444;6.528;2022-11-06T15:52:52;10.70;99.90
9849;DHT22;4963;51.444;6.528;2022-11-06T15:55:27;10.60;99.90
9849;DHT22;4963;51.444;6.528;2022-11-06T15:57:54;10.60;99.90
9849;DHT22;4963;51.444;6.528;2022-11-06T16:00:32;10.60;99.90
9849;DHT22;4963;51.444;6.528;2022-11-06T16:03:03;10.50;99.90
9849;DHT22;4963;51.444;6.528;2022-11-06T16:05:33;10.40;99.90
9849;DHT22;4963;51.444;6.528;2022-11-06T16:08:00;10.40;99.90
9849;DHT22;4963;51.444;6.528;2022-11-06T16:10:27;10.30;99.90
9849;DHT22;4963;51.444;6.528;2022-11-06T16:12:55;10.40;99.90
9849;DHT22;4963;51.444;6.528;2022-11-06T16:15:44;10.40;99.90
9849;DHT22;4963;51.444;6.528;2022-11-06T16:18:15;10.40;99.90
9849;DHT22;4963;51.444;6.528;2022-11-06T16:20:43;10.40;99.90
9849;DHT22;4963;51.444;6.528;2022-11-06T16:23:13;10.40;99.90
9849;DHT22;4963;51.444;6.528;2022-11-06T16:25:41;10.40;99.90
9849;DHT22;4963;51.444;6.528;2022-11-06T16:28:18;10.30;99.90
9849;DHT22;4963;51.444;6.528;2022-11-06T16:30:47;10.30;99.90
9849;DHT22;4963;51.444;6.528;2022-11-06T16:33:21;10.30;99.90
9849;DHT22;4963;51.444;6.528;2022-11-06T16:35:49;10.30;99.90
9849;DHT22;4963;51.444;6.528;2022-11-06T16:38:36;10.30;99.90
9849;DHT22;4963;51.444;6.528;2022-11-06T16:41:04;10.20;99.90